Susan Ann II — MBQM8 — position and weather

sailwx.info

Track history (hours):
 
Tides and Currents Weather Stations Pressure Air Temp Water Temp Dewpoint Dewpoint Depression Visibility Wind Speed Wind Dir Waves Ship Positions

Susan Ann II

Last reported at 2018-Mar-19 11:30 UTC. Time now 2018-Aug-19 23:13 UTC.
Position N 24°26' W 076°39'.
Warning: this ship's position is months out of date.

Length 14 m.

Type: Sailing vessel. MMSI: 232010412.

Date/timePositionNaut miles runAvg speedWind from/ knotsBaromVisibWave heightAir tempDewpointWater temp
2018-Mar-19 11:30N 24°26' W 076°39'3 4.5
2018-Mar-19 10:57N 24°24' W 076°38'0 0.0
2018-Mar-19 10:00N 24°24' W 076°38'0 0.0
2018-Mar-19 09:30N 24°24' W 076°38'0 0.0
2018-Mar-19 08:54N 24°24' W 076°38'0 0.0
2018-Mar-19 08:30N 24°24' W 076°38'0 0.0
2018-Mar-19 07:57N 24°24' W 076°38'0 0.0
2018-Mar-19 07:30N 24°24' W 076°38'0 0.0
2018-Mar-19 07:00N 24°24' W 076°38'0 0.0
2018-Mar-19 06:30N 24°24' W 076°38'0 0.0
2018-Mar-19 06:00N 24°24' W 076°38'0 0.0
2018-Mar-19 05:27N 24°24' W 076°38'0 0.0
2018-Mar-19 05:00N 24°24' W 076°38'0 0.0
2018-Mar-19 04:30N 24°24' W 076°38'0 0.0
2018-Mar-19 03:54N 24°24' W 076°38'0 0.0
2018-Mar-19 03:30N 24°24' W 076°38'0 0.0
2018-Mar-19 03:00N 24°24' W 076°38'0 0.0
2018-Mar-19 02:30N 24°24' W 076°38'0 0.0
2018-Mar-19 01:48N 24°24' W 076°38'0 0.0
2018-Mar-19 01:30N 24°24' W 076°38'0 0.0
2018-Mar-19 01:00N 24°24' W 076°38'0 0.0
2018-Mar-19 00:27N 24°24' W 076°38'0 0.0
2018-Mar-19 00:00N 24°24' W 076°38'0 0.0
2018-Mar-18 23:30N 24°24' W 076°38'0 0.0
2018-Mar-18 22:30N 24°24' W 076°38'0 0.0
2018-Mar-18 21:24N 24°24' W 076°38'0 0.0
2018-Mar-18 20:54N 24°24' W 076°38'0 0.0
2018-Mar-18 20:30N 24°24' W 076°38'1 0.6
2018-Mar-18 18:20N 24°24' W 076°37'2 5.2
2018-Mar-18 18:00N 24°23' W 076°35'3 5.5
2018-Mar-18 17:30N 24°21' W 076°33'3 5.5
2018-Mar-18 16:59N 24°19' W 076°32'3 5.9
2018-Mar-18 16:30N 24°16' W 076°32'1 1.2
2018-Mar-18 15:58N 24°16' W 076°31'0 0.0
2018-Mar-18 15:28N 24°16' W 076°31'0 0.9
2018-Mar-18 15:01N 24°15' W 076°31'2 4.1
2018-Mar-18 14:31N 24°14' W 076°33'3 5.6
2018-Mar-18 13:58N 24°12' W 076°31'3 6.0
2018-Mar-18 13:28N 24°10' W 076°28'1 1.5
2018-Mar-18 12:58N 24°10' W 076°27'0 0.0
2018-Mar-18 12:22N 24°10' W 076°27'0 0.0
2018-Mar-18 11:58N 24°10' W 076°27'0 0.0
2018-Mar-18 11:28N 24°10' W 076°27'0 0.0
2018-Mar-18 10:58N 24°10' W 076°27'0 0.0
2018-Mar-18 10:28N 24°10' W 076°27'0 0.0
2018-Mar-18 09:58N 24°10' W 076°27'0 0.0
2018-Mar-18 09:28N 24°10' W 076°27'0 0.0
2018-Mar-18 08:58N 24°10' W 076°27'0 0.0
2018-Mar-18 08:28N 24°10' W 076°27'0 0.0
2018-Mar-18 07:58N 24°10' W 076°27'0 0.0
2018-Mar-18 07:28N 24°10' W 076°27'0 0.0
2018-Mar-18 06:58N 24°10' W 076°27'0 0.0
2018-Mar-18 06:28N 24°10' W 076°27'0 0.0
2018-Mar-18 05:58N 24°10' W 076°27'0 0.0
2018-Mar-18 05:28N 24°10' W 076°27'0 0.0
2018-Mar-18 04:58N 24°10' W 076°27'0 0.0
2018-Mar-18 04:28N 24°10' W 076°27'0 0.0
2018-Mar-18 03:58N 24°10' W 076°27'0 0.0
2018-Mar-18 03:28N 24°10' W 076°27'0 0.0
2018-Mar-18 02:58N 24°10' W 076°27'0 0.0
2018-Mar-18 02:28N 24°10' W 076°27'0 0.0
2018-Mar-18 01:58N 24°10' W 076°27'0 0.0
2018-Mar-18 01:25N 24°10' W 076°27'0 0.0
2018-Mar-18 00:58N 24°10' W 076°27'0 0.0
2018-Mar-18 00:28N 24°10' W 076°27'0 0.0
2018-Mar-17 23:58N 24°10' W 076°27'0 0.0
2018-Mar-17 23:28N 24°10' W 076°27'0 0.0
2018-Mar-17 22:58N 24°10' W 076°27'0 0.0
2018-Mar-17 22:28N 24°10' W 076°27'0 0.0
2018-Mar-17 21:58N 24°10' W 076°27'0 0.0
2018-Mar-17 21:28N 24°10' W 076°27'0 0.0
2018-Mar-17 20:58N 24°10' W 076°27'0 0.0
2018-Mar-17 20:28N 24°10' W 076°27'0 0.0
2018-Mar-17 19:58N 24°10' W 076°27'0 0.0
2018-Mar-17 19:28N 24°10' W 076°27'0 0.0
2018-Mar-17 18:58N 24°10' W 076°27'0 0.0
2018-Mar-17 18:28N 24°10' W 076°27'0 0.0
2018-Mar-17 17:58N 24°10' W 076°27'0 0.0
2018-Mar-17 17:28N 24°10' W 076°27'0 0.0
2018-Mar-17 16:58N 24°10' W 076°27'0 0.0
2018-Mar-17 16:25N 24°10' W 076°27'0 0.0
2018-Mar-17 15:58N 24°10' W 076°27'0 0.6
2018-Mar-17 15:30N 24°10' W 076°27'1 1.5
2018-Mar-17 14:59N 24°11' W 076°27'0 0.0
2018-Mar-17 14:29N 24°11' W 076°27'0 0.0
2018-Mar-17 13:59N 24°11' W 076°27'0 0.0
2018-Mar-17 13:27N 24°11' W 076°27'0 0.0
2018-Mar-17 12:59N 24°11' W 076°27'0 0.0
2018-Mar-17 12:29N 24°11' W 076°27'0 0.0
2018-Mar-17 11:59N 24°11' W 076°27'0 0.0
2018-Mar-17 11:29N 24°11' W 076°27'0 0.0
2018-Mar-17 10:59N 24°11' W 076°27'0 0.0
2018-Mar-17 10:29N 24°11' W 076°27'0 0.0
2018-Mar-17 09:56N 24°11' W 076°27'0 0.0
2018-Mar-17 09:29N 24°11' W 076°27'0 0.0
2018-Mar-17 08:59N 24°11' W 076°27'0 0.0
2018-Mar-17 08:29N 24°11' W 076°27'0 0.0
2018-Mar-17 07:59N 24°11' W 076°27'0 0.0
2018-Mar-17 07:29N 24°11' W 076°27'0 0.0
2018-Mar-17 06:59N 24°11' W 076°27'0 0.0
2018-Mar-17 06:29N 24°11' W 076°27'0 0.0
2018-Mar-17 05:59N 24°11' W 076°27'0 0.0
2018-Mar-17 05:29N 24°11' W 076°27'0 0.0
2018-Mar-17 04:59N 24°11' W 076°27'0 0.0
2018-Mar-17 04:29N 24°11' W 076°27'0 0.0
2018-Mar-17 03:59N 24°11' W 076°27'0 0.0
2018-Mar-17 03:29N 24°11' W 076°27'0 0.0
2018-Mar-17 02:59N 24°11' W 076°27'0 0.0
2018-Mar-17 02:29N 24°11' W 076°27'0 0.0
2018-Mar-17 01:59N 24°11' W 076°27'0 0.0
2018-Mar-17 01:29N 24°11' W 076°27'0 0.0
2018-Mar-17 00:59N 24°11' W 076°27'0 0.0
2018-Mar-17 00:26N 24°11' W 076°27'0 0.0
2018-Mar-16 23:56N 24°11' W 076°27'0 0.0
2018-Mar-16 23:29N 24°11' W 076°27'0 0.0
2018-Mar-16 22:59N 24°11' W 076°27'0 0.0
2018-Mar-16 22:26N 24°11' W 076°27'0 0.0
2018-Mar-16 21:59N 24°11' W 076°27'0 0.0
2018-Mar-16 21:29N 24°11' W 076°27'0 0.0
2018-Mar-16 20:59N 24°11' W 076°27'0 0.0
2018-Mar-16 20:29N 24°11' W 076°27'0 0.0
2018-Mar-16 19:59N 24°11' W 076°27'0 0.0
2018-Mar-16 19:29N 24°11' W 076°27'0 0.0
2018-Mar-16 18:23N 24°11' W 076°27'0 0.0
2018-Mar-16 17:59N 24°11' W 076°27'1 2.0
2018-Mar-16 17:30N 24°11' W 076°28'2 4.2
2018-Mar-16 17:00N 24°08' W 076°29'3 5.4
2018-Mar-16 16:26N 24°06' W 076°27'2 5.5
2018-Mar-16 15:59N 24°04' W 076°25'  
2018-Mar-12 01:15N 23°31' W 075°45'0 0.0
2018-Mar-11 16:42N 23°31' W 075°45'0 0.0
2018-Mar-11 16:27N 23°31' W 075°45'0 0.0
2018-Mar-11 16:00N 23°31' W 075°45'0 0.0
2018-Mar-11 15:30N 23°31' W 075°45'0 0.0
2018-Mar-11 15:00N 23°31' W 075°45'0 0.0
2018-Mar-11 14:30N 23°31' W 075°45'0 0.0
2018-Mar-11 11:57N 23°31' W 075°45'0 0.0
2018-Mar-11 11:30N 23°31' W 075°45'0 0.0
2018-Mar-11 11:00N 23°31' W 075°45'0 0.0
2018-Mar-11 10:30N 23°31' W 075°45'0 0.0
2018-Mar-11 10:00N 23°31' W 075°45'0 0.0
2018-Mar-11 09:30N 23°31' W 075°45'0 0.0
2018-Mar-11 09:00N 23°31' W 075°45'0 0.0
2018-Mar-11 08:30N 23°31' W 075°45'0 0.0
2018-Mar-11 08:00N 23°31' W 075°45'0 0.0
2018-Mar-11 07:30N 23°31' W 075°45'0 0.0
2018-Mar-11 07:00N 23°31' W 075°45'0 0.0
2018-Mar-11 06:30N 23°31' W 075°45'0 0.0
2018-Mar-11 06:00N 23°31' W 075°45'0 0.0
2018-Mar-11 05:30N 23°31' W 075°45'0 0.0
2018-Mar-11 05:00N 23°31' W 075°45'0 0.0
2018-Mar-11 04:30N 23°31' W 075°45'0 0.0
2018-Mar-11 04:00N 23°31' W 075°45'0 0.0
2018-Mar-11 03:30N 23°31' W 075°45'0 0.0
2018-Mar-11 03:00N 23°31' W 075°45'0 0.0
2018-Mar-11 02:30N 23°31' W 075°45'0 0.0
2018-Mar-11 02:00N 23°31' W 075°45'0 0.0
2018-Mar-11 01:30N 23°31' W 075°45'0 0.0
2018-Mar-11 01:00N 23°31' W 075°45'0 0.0
2018-Mar-11 00:30N 23°31' W 075°45'0 0.0
2018-Mar-11 00:00N 23°31' W 075°45'0 0.0
2018-Mar-10 23:30N 23°31' W 075°45'0 0.0
2018-Mar-10 23:00N 23°31' W 075°45'0 0.0
2018-Mar-10 22:30N 23°31' W 075°45'0 0.0
2018-Mar-10 21:54N 23°31' W 075°45'0 0.0
2018-Mar-10 21:30N 23°31' W 075°45'0 0.0
2018-Mar-10 21:00N 23°31' W 075°45'0 0.0
2018-Mar-10 20:30N 23°31' W 075°45'0 0.0
2018-Mar-10 19:48N 23°31' W 075°45'0 0.0
2018-Mar-10 19:30N 23°31' W 075°45'0 0.0
2018-Mar-10 19:00N 23°31' W 075°45'0 0.0
2018-Mar-10 18:24N 23°31' W 075°45'1 3.1
2018-Mar-10 18:00N 23°30' W 075°44'3 6.6
2018-Mar-10 17:30N 23°29' W 075°41'3 6.3
2018-Mar-10 17:00N 23°31' W 075°38'3 6.8
2018-Mar-10 16:30N 23°33' W 075°35'  
Track history (hours):
 
Tides and Currents Weather Stations Pressure Air Temp Water Temp Dewpoint Dewpoint Depression Visibility Wind Speed Wind Dir Waves Ship Positions

Susan Ann II

Last reported at 2018-Mar-19 11:30 UTC. Time now 2018-Aug-19 23:13 UTC.
Position N 24°26' W 076°39'.
Warning: this ship's position is months out of date.

Length 14 m.

Type: Sailing vessel. MMSI: 232010412.

Date/timePositionNaut miles runAvg speedWind from/ knotsBaromVisibWave heightAir tempDewpointWater temp
2018-Mar-19 11:30N 24°26' W 076°39'3 4.5
2018-Mar-19 10:57N 24°24' W 076°38'0 0.0
2018-Mar-19 10:00N 24°24' W 076°38'0 0.0
2018-Mar-19 09:30N 24°24' W 076°38'0 0.0
2018-Mar-19 08:54N 24°24' W 076°38'0 0.0
2018-Mar-19 08:30N 24°24' W 076°38'0 0.0
2018-Mar-19 07:57N 24°24' W 076°38'0 0.0
2018-Mar-19 07:30N 24°24' W 076°38'0 0.0
2018-Mar-19 07:00N 24°24' W 076°38'0 0.0
2018-Mar-19 06:30N 24°24' W 076°38'0 0.0
2018-Mar-19 06:00N 24°24' W 076°38'0 0.0
2018-Mar-19 05:27N 24°24' W 076°38'0 0.0
2018-Mar-19 05:00N 24°24' W 076°38'0 0.0
2018-Mar-19 04:30N 24°24' W 076°38'0 0.0
2018-Mar-19 03:54N 24°24' W 076°38'0 0.0
2018-Mar-19 03:30N 24°24' W 076°38'0 0.0
2018-Mar-19 03:00N 24°24' W 076°38'0 0.0
2018-Mar-19 02:30N 24°24' W 076°38'0 0.0
2018-Mar-19 01:48N 24°24' W 076°38'0 0.0
2018-Mar-19 01:30N 24°24' W 076°38'0 0.0
2018-Mar-19 01:00N 24°24' W 076°38'0 0.0
2018-Mar-19 00:27N 24°24' W 076°38'0 0.0
2018-Mar-19 00:00N 24°24' W 076°38'0 0.0
2018-Mar-18 23:30N 24°24' W 076°38'0 0.0
2018-Mar-18 22:30N 24°24' W 076°38'0 0.0
2018-Mar-18 21:24N 24°24' W 076°38'0 0.0
2018-Mar-18 20:54N 24°24' W 076°38'0 0.0
2018-Mar-18 20:30N 24°24' W 076°38'1 0.6
2018-Mar-18 18:20N 24°24' W 076°37'2 5.2
2018-Mar-18 18:00N 24°23' W 076°35'3 5.5
2018-Mar-18 17:30N 24°21' W 076°33'3 5.5
2018-Mar-18 16:59N 24°19' W 076°32'3 5.9
2018-Mar-18 16:30N 24°16' W 076°32'1 1.2
2018-Mar-18 15:58N 24°16' W 076°31'0 0.0
2018-Mar-18 15:28N 24°16' W 076°31'0 0.9
2018-Mar-18 15:01N 24°15' W 076°31'2 4.1
2018-Mar-18 14:31N 24°14' W 076°33'3 5.6
2018-Mar-18 13:58N 24°12' W 076°31'3 6.0
2018-Mar-18 13:28N 24°10' W 076°28'1 1.5
2018-Mar-18 12:58N 24°10' W 076°27'0 0.0
2018-Mar-18 12:22N 24°10' W 076°27'0 0.0
2018-Mar-18 11:58N 24°10' W 076°27'0 0.0
2018-Mar-18 11:28N 24°10' W 076°27'0 0.0
2018-Mar-18 10:58N 24°10' W 076°27'0 0.0
2018-Mar-18 10:28N 24°10' W 076°27'0 0.0
2018-Mar-18 09:58N 24°10' W 076°27'0 0.0
2018-Mar-18 09:28N 24°10' W 076°27'0 0.0
2018-Mar-18 08:58N 24°10' W 076°27'0 0.0
2018-Mar-18 08:28N 24°10' W 076°27'0 0.0
2018-Mar-18 07:58N 24°10' W 076°27'0 0.0
2018-Mar-18 07:28N 24°10' W 076°27'0 0.0
2018-Mar-18 06:58N 24°10' W 076°27'0 0.0
2018-Mar-18 06:28N 24°10' W 076°27'0 0.0
2018-Mar-18 05:58N 24°10' W 076°27'0 0.0
2018-Mar-18 05:28N 24°10' W 076°27'0 0.0
2018-Mar-18 04:58N 24°10' W 076°27'0 0.0
2018-Mar-18 04:28N 24°10' W 076°27'0 0.0
2018-Mar-18 03:58N 24°10' W 076°27'0 0.0
2018-Mar-18 03:28N 24°10' W 076°27'0 0.0
2018-Mar-18 02:58N 24°10' W 076°27'0 0.0
2018-Mar-18 02:28N 24°10' W 076°27'0 0.0
2018-Mar-18 01:58N 24°10' W 076°27'0 0.0
2018-Mar-18 01:25N 24°10' W 076°27'0 0.0
2018-Mar-18 00:58N 24°10' W 076°27'0 0.0
2018-Mar-18 00:28N 24°10' W 076°27'0 0.0
2018-Mar-17 23:58N 24°10' W 076°27'0 0.0
2018-Mar-17 23:28N 24°10' W 076°27'0 0.0
2018-Mar-17 22:58N 24°10' W 076°27'0 0.0
2018-Mar-17 22:28N 24°10' W 076°27'0 0.0
2018-Mar-17 21:58N 24°10' W 076°27'0 0.0
2018-Mar-17 21:28N 24°10' W 076°27'0 0.0
2018-Mar-17 20:58N 24°10' W 076°27'0 0.0
2018-Mar-17 20:28N 24°10' W 076°27'0 0.0
2018-Mar-17 19:58N 24°10' W 076°27'0 0.0
2018-Mar-17 19:28N 24°10' W 076°27'0 0.0
2018-Mar-17 18:58N 24°10' W 076°27'0 0.0
2018-Mar-17 18:28N 24°10' W 076°27'0 0.0
2018-Mar-17 17:58N 24°10' W 076°27'0 0.0
2018-Mar-17 17:28N 24°10' W 076°27'0 0.0
2018-Mar-17 16:58N 24°10' W 076°27'0 0.0
2018-Mar-17 16:25N 24°10' W 076°27'0 0.0
2018-Mar-17 15:58N 24°10' W 076°27'0 0.6
2018-Mar-17 15:30N 24°10' W 076°27'1 1.5
2018-Mar-17 14:59N 24°11' W 076°27'0 0.0
2018-Mar-17 14:29N 24°11' W 076°27'0 0.0
2018-Mar-17 13:59N 24°11' W 076°27'0 0.0
2018-Mar-17 13:27N 24°11' W 076°27'0 0.0
2018-Mar-17 12:59N 24°11' W 076°27'0 0.0
2018-Mar-17 12:29N 24°11' W 076°27'0 0.0
2018-Mar-17 11:59N 24°11' W 076°27'0 0.0
2018-Mar-17 11:29N 24°11' W 076°27'0 0.0
2018-Mar-17 10:59N 24°11' W 076°27'0 0.0
2018-Mar-17 10:29N 24°11' W 076°27'0 0.0
2018-Mar-17 09:56N 24°11' W 076°27'0 0.0
2018-Mar-17 09:29N 24°11' W 076°27'0 0.0
2018-Mar-17 08:59N 24°11' W 076°27'0 0.0
2018-Mar-17 08:29N 24°11' W 076°27'0 0.0
2018-Mar-17 07:59N 24°11' W 076°27'0 0.0
2018-Mar-17 07:29N 24°11' W 076°27'0 0.0
2018-Mar-17 06:59N 24°11' W 076°27'0 0.0
2018-Mar-17 06:29N 24°11' W 076°27'0 0.0
2018-Mar-17 05:59N 24°11' W 076°27'0 0.0
2018-Mar-17 05:29N 24°11' W 076°27'0 0.0
2018-Mar-17 04:59N 24°11' W 076°27'0 0.0
2018-Mar-17 04:29N 24°11' W 076°27'0 0.0
2018-Mar-17 03:59N 24°11' W 076°27'0 0.0
2018-Mar-17 03:29N 24°11' W 076°27'0 0.0
2018-Mar-17 02:59N 24°11' W 076°27'0 0.0
2018-Mar-17 02:29N 24°11' W 076°27'0 0.0
2018-Mar-17 01:59N 24°11' W 076°27'0 0.0
2018-Mar-17 01:29N 24°11' W 076°27'0 0.0
2018-Mar-17 00:59N 24°11' W 076°27'0 0.0
2018-Mar-17 00:26N 24°11' W 076°27'0 0.0
2018-Mar-16 23:56N 24°11' W 076°27'0 0.0
2018-Mar-16 23:29N 24°11' W 076°27'0 0.0
2018-Mar-16 22:59N 24°11' W 076°27'0 0.0
2018-Mar-16 22:26N 24°11' W 076°27'0 0.0
2018-Mar-16 21:59N 24°11' W 076°27'0 0.0
2018-Mar-16 21:29N 24°11' W 076°27'0 0.0
2018-Mar-16 20:59N 24°11' W 076°27'0 0.0
2018-Mar-16 20:29N 24°11' W 076°27'0 0.0
2018-Mar-16 19:59N 24°11' W 076°27'0 0.0
2018-Mar-16 19:29N 24°11' W 076°27'0 0.0
2018-Mar-16 18:23N 24°11' W 076°27'0 0.0
2018-Mar-16 17:59N 24°11' W 076°27'1 2.0
2018-Mar-16 17:30N 24°11' W 076°28'2 4.2
2018-Mar-16 17:00N 24°08' W 076°29'3 5.4
2018-Mar-16 16:26N 24°06' W 076°27'2 5.5
2018-Mar-16 15:59N 24°04' W 076°25'  
2018-Mar-12 01:15N 23°31' W 075°45'0 0.0
2018-Mar-11 16:42N 23°31' W 075°45'0 0.0
2018-Mar-11 16:27N 23°31' W 075°45'0 0.0
2018-Mar-11 16:00N 23°31' W 075°45'0 0.0
2018-Mar-11 15:30N 23°31' W 075°45'0 0.0
2018-Mar-11 15:00N 23°31' W 075°45'0 0.0
2018-Mar-11 14:30N 23°31' W 075°45'0 0.0
2018-Mar-11 11:57N 23°31' W 075°45'0 0.0
2018-Mar-11 11:30N 23°31' W 075°45'0 0.0
2018-Mar-11 11:00N 23°31' W 075°45'0 0.0
2018-Mar-11 10:30N 23°31' W 075°45'0 0.0
2018-Mar-11 10:00N 23°31' W 075°45'0 0.0
2018-Mar-11 09:30N 23°31' W 075°45'0 0.0
2018-Mar-11 09:00N 23°31' W 075°45'0 0.0
2018-Mar-11 08:30N 23°31' W 075°45'0 0.0
2018-Mar-11 08:00N 23°31' W 075°45'0 0.0
2018-Mar-11 07:30N 23°31' W 075°45'0 0.0
2018-Mar-11 07:00N 23°31' W 075°45'0 0.0
2018-Mar-11 06:30N 23°31' W 075°45'0 0.0
2018-Mar-11 06:00N 23°31' W 075°45'0 0.0
2018-Mar-11 05:30N 23°31' W 075°45'0 0.0
2018-Mar-11 05:00N 23°31' W 075°45'0 0.0
2018-Mar-11 04:30N 23°31' W 075°45'0 0.0
2018-Mar-11 04:00N 23°31' W 075°45'0 0.0
2018-Mar-11 03:30N 23°31' W 075°45'0 0.0
2018-Mar-11 03:00N 23°31' W 075°45'0 0.0
2018-Mar-11 02:30N 23°31' W 075°45'0 0.0
2018-Mar-11 02:00N 23°31' W 075°45'0 0.0
2018-Mar-11 01:30N 23°31' W 075°45'0 0.0
2018-Mar-11 01:00N 23°31' W 075°45'0 0.0
2018-Mar-11 00:30N 23°31' W 075°45'0 0.0
2018-Mar-11 00:00N 23°31' W 075°45'0 0.0
2018-Mar-10 23:30N 23°31' W 075°45'0 0.0
2018-Mar-10 23:00N 23°31' W 075°45'0 0.0
2018-Mar-10 22:30N 23°31' W 075°45'0 0.0
2018-Mar-10 21:54N 23°31' W 075°45'0 0.0
2018-Mar-10 21:30N 23°31' W 075°45'0 0.0
2018-Mar-10 21:00N 23°31' W 075°45'0 0.0
2018-Mar-10 20:30N 23°31' W 075°45'0 0.0
2018-Mar-10 19:48N 23°31' W 075°45'0 0.0
2018-Mar-10 19:30N 23°31' W 075°45'0 0.0
2018-Mar-10 19:00N 23°31' W 075°45'0 0.0
2018-Mar-10 18:24N 23°31' W 075°45'1 3.1
2018-Mar-10 18:00N 23°30' W 075°44'3 6.6
2018-Mar-10 17:30N 23°29' W 075°41'3 6.3
2018-Mar-10 17:00N 23°31' W 075°38'3 6.8
2018-Mar-10 16:30N 23°33' W 075°35'  

Dump ship's entire track history